sensor_id;sensor_type;location;lat;lon;timestamp;pressure;altitude;pressure_sealevel;temperature;humidity
50852;BME280;43953;45.508;-122.806;2024-02-14T00:00:20;100772.75;;;23.89;35.79
50852;BME280;43953;45.508;-122.806;2024-02-14T00:00:52;100773.88;;;23.88;35.68
50852;BME280;43953;45.508;-122.806;2024-02-14T00:01:24;100769.50;;;23.87;35.64
50852;BME280;43953;45.508;-122.806;2024-02-14T00:01:56;100773.06;;;23.88;35.62
50852;BME280;43953;45.508;-122.806;2024-02-14T00:02:27;100772.25;;;23.87;35.79
50852;BME280;43953;45.508;-122.806;2024-02-14T00:02:59;100767.03;;;23.86;35.67
50852;BME280;43953;45.508;-122.806;2024-02-14T00:03:31;100767.03;;;23.86;35.70
50852;BME280;43953;45.508;-122.806;2024-02-14T00:04:03;100774.47;;;23.85;35.70
50852;BME280;43953;45.508;-122.806;2024-02-14T00:04:35;100772.84;;;23.84;35.79
50852;BME280;43953;45.508;-122.806;2024-02-14T00:05:07;100766.22;;;23.85;35.81
50852;BME280;43953;45.508;-122.806;2024-02-14T00:05:41;100770.91;;;23.84;35.67
50852;BME280;43953;45.508;-122.806;2024-02-14T00:06:13;100770.91;;;23.84;35.72
50852;BME280;43953;45.508;-122.806;2024-02-14T00:06:44;100769.78;;;23.86;35.72
50852;BME280;43953;45.508;-122.806;2024-02-14T00:07:16;100777.22;;;23.85;35.54
50852;BME280;43953;45.508;-122.806;2024-02-14T00:07:48;100772.53;;;23.86;35.83
50852;BME280;43953;45.508;-122.806;2024-02-14T00:08:20;100767.84;;;23.86;35.65
50852;BME280;43953;45.508;-122.806;2024-02-14T00:08:52;100772.53;;;23.86;35.76
50852;BME280;43953;45.508;-122.806;2024-02-14T00:09:24;100766.22;;;23.85;35.80
50852;BME280;43953;45.508;-122.806;2024-02-14T00:09:55;100767.03;;;23.86;35.85
50852;BME280;43953;45.508;-122.806;2024-02-14T00:10:27;100768.97;;;23.85;35.87
50852;BME280;43953;45.508;-122.806;2024-02-14T00:10:59;100768.97;;;23.85;35.66
50852;BME280;43953;45.508;-122.806;2024-02-14T00:11:32;100768.16;;;23.84;35.70
50852;BME280;43953;45.508;-122.806;2024-02-14T00:12:03;100760.50;;;23.81;35.65
50852;BME280;43953;45.508;-122.806;2024-02-14T00:12:36;100766.81;;;23.82;35.60
50852;BME280;43953;45.508;-122.806;2024-02-14T00:13:08;100761.31;;;23.82;35.82
50852;BME280;43953;45.508;-122.806;2024-02-14T00:13:41;100758.84;;;23.80;35.73
50852;BME280;43953;45.508;-122.806;2024-02-14T00:14:12;100756.09;;;23.80;35.91
50852;BME280;43953;45.508;-122.806;2024-02-14T00:14:44;100760.78;;;23.80;35.73
50852;BME280;43953;45.508;-122.806;2024-02-14T00:15:16;100755.28;;;23.80;35.75
50852;BME280;43953;45.508;-122.806;2024-02-14T00:15:48;100758.03;;;23.80;35.79
50852;BME280;43953;45.508;-122.806;2024-02-14T00:16:20;100753.66;;;23.79;35.66
50852;BME280;43953;45.508;-122.806;2024-02-14T00:16:52;100756.41;;;23.79;35.88
50852;BME280;43953;45.508;-122.806;2024-02-14T00:17:24;100754.75;;;23.78;35.98
50852;BME280;43953;45.508;-122.806;2024-02-14T00:17:56;100754.75;;;23.78;35.73
50852;BME280;43953;45.508;-122.806;2024-02-14T00:18:28;100759.44;;;23.77;35.91
50852;BME280;43953;45.508;-122.806;2024-02-14T00:19:00;100760.25;;;23.78;35.87
50852;BME280;43953;45.508;-122.806;2024-02-14T00:19:34;100755.88;;;23.77;36.04
50852;BME280;43953;45.508;-122.806;2024-02-14T00:20:06;100762.19;;;23.77;35.71
50852;BME280;43953;45.508;-122.806;2024-02-14T00:20:38;100758.63;;;23.77;35.90
50852;BME280;43953;45.508;-122.806;2024-02-14T00:21:10;100763.31;;;23.76;35.67
50852;BME280;43953;45.508;-122.806;2024-02-14T00:21:42;100755.88;;;23.77;35.99
50852;BME280;43953;45.508;-122.806;2024-02-14T00:22:14;100755.34;;;23.75;36.09
50852;BME280;43953;45.508;-122.806;2024-02-14T00:22:47;100760.56;;;23.76;35.86
50852;BME280;43953;45.508;-122.806;2024-02-14T00:23:19;100755.06;;;23.76;35.93
50852;BME280;43953;45.508;-122.806;2024-02-14T00:23:51;100753.44;;;23.75;35.79
50852;BME280;43953;45.508;-122.806;2024-02-14T00:24:23;100752.59;;;23.75;35.77
50852;BME280;43953;45.508;-122.806;2024-02-14T00:24:59;100756.19;;;23.75;35.91
50852;BME280;43953;45.508;-122.806;2024-02-14T00:25:31;100754.53;;;23.74;35.89
50852;BME280;43953;45.508;-122.806;2024-02-14T00:26:02;100753.72;;;23.74;35.97
50852;BME280;43953;45.508;-122.806;2024-02-14T00:26:34;100752.09;;;23.73;35.92
50852;BME280;43953;45.508;-122.806;2024-02-14T00:27:06;100752.91;;;23.73;35.84
50852;BME280;43953;45.508;-122.806;2024-02-14T00:27:38;100749.34;;;23.73;35.94
50852;BME280;43953;45.508;-122.806;2024-02-14T00:28:11;100752.09;;;23.73;35.95
50852;BME280;43953;45.508;-122.806;2024-02-14T00:28:43;100755.94;;;23.72;35.85
50852;BME280;43953;45.508;-122.806;2024-02-14T00:29:15;100751.28;;;23.72;36.08
50852;BME280;43953;45.508;-122.806;2024-02-14T00:29:47;100752.09;;;23.73;35.90
50852;BME280;43953;45.508;-122.806;2024-02-14T00:30:19;100756.25;;;23.70;35.97
50852;BME280;43953;45.508;-122.806;2024-02-14T00:30:52;100753.19;;;23.72;35.93
50852;BME280;43953;45.508;-122.806;2024-02-14T00:31:23;100744.13;;;23.71;35.93
50852;BME280;43953;45.508;-122.806;2024-02-14T00:31:55;100754.31;;;23.71;35.89
50852;BME280;43953;45.508;-122.806;2024-02-14T00:32:27;100746.88;;;23.71;35.81
50852;BME280;43953;45.508;-122.806;2024-02-14T00:32:59;100751.56;;;23.71;35.94
50852;BME280;43953;45.508;-122.806;2024-02-14T00:33:30;100754.31;;;23.71;36.03
50852;BME280;43953;45.508;-122.806;2024-02-14T00:34:02;100746.09;;;23.66;35.95
50852;BME280;43953;45.508;-122.806;2024-02-14T00:34:34;100751.81;;;23.69;35.75
50852;BME280;43953;45.508;-122.806;2024-02-14T00:35:06;100751.00;;;23.69;35.92
50852;BME280;43953;45.508;-122.806;2024-02-14T00:35:37;100742.25;;;23.67;35.78
50852;BME280;43953;45.508;-122.806;2024-02-14T00:36:09;100748.56;;;23.67;35.79
50852;BME280;43953;45.508;-122.806;2024-02-14T00:36:41;100748.56;;;23.67;35.89
50852;BME280;43953;45.508;-122.806;2024-02-14T00:37:13;100747.75;;;23.67;35.90
50852;BME280;43953;45.508;-122.806;2024-02-14T00:37:44;100754.88;;;23.68;35.71
50852;BME280;43953;45.508;-122.806;2024-02-14T00:38:16;100745.00;;;23.67;35.97
50852;BME280;43953;45.508;-122.806;2024-02-14T00:38:48;100746.91;;;23.66;36.09
50852;BME280;43953;45.508;-122.806;2024-02-14T00:39:20;100749.97;;;23.65;35.89
50852;BME280;43953;45.508;-122.806;2024-02-14T00:39:52;100747.22;;;23.65;36.06
50852;BME280;43953;45.508;-122.806;2024-02-14T00:40:25;100749.97;;;23.65;35.80
50852;BME280;43953;45.508;-122.806;2024-02-14T00:40:56;100753.53;;;23.65;36.04
50852;BME280;43953;45.508;-122.806;2024-02-14T00:41:28;100749.16;;;23.64;36.02
50852;BME280;43953;45.508;-122.806;2024-02-14T00:42:00;100751.09;;;23.64;36.09
50852;BME280;43953;45.508;-122.806;2024-02-14T00:42:32;100747.22;;;23.65;36.14
50852;BME280;43953;45.508;-122.806;2024-02-14T00:43:04;100747.22;;;23.65;35.74
50852;BME280;43953;45.508;-122.806;2024-02-14T00:43:36;100745.28;;;23.65;35.80
50852;BME280;43953;45.508;-122.806;2024-02-14T00:44:08;100743.94;;;23.62;35.84
50852;BME280;43953;45.508;-122.806;2024-02-14T00:44:40;100748.34;;;23.64;35.97
50852;BME280;43953;45.508;-122.806;2024-02-14T00:45:12;100751.09;;;23.64;35.90
50852;BME280;43953;45.508;-122.806;2024-02-14T00:45:43;100757.69;;;23.62;35.77
50852;BME280;43953;45.508;-122.806;2024-02-14T00:46:16;100753.00;;;23.63;35.99
50852;BME280;43953;45.508;-122.806;2024-02-14T00:46:48;100755.47;;;23.65;35.96
50852;BME280;43953;45.508;-122.806;2024-02-14T00:47:20;100751.59;;;23.66;36.09
50852;BME280;43953;45.508;-122.806;2024-02-14T00:47:52;100756.00;;;23.67;36.15
50852;BME280;43953;45.508;-122.806;2024-02-14T00:48:23;100749.06;;;23.69;36.03
50852;BME280;43953;45.508;-122.806;2024-02-14T00:48:56;100755.13;;;23.71;35.99
50852;BME280;43953;45.508;-122.806;2024-02-14T00:49:28;100756.47;;;23.74;36.27
50852;BME280;43953;45.508;-122.806;2024-02-14T00:50:00;100759.44;;;23.77;36.14
50852;BME280;43953;45.508;-122.806;2024-02-14T00:50:32;100755.28;;;23.80;36.13
50852;BME280;43953;45.508;-122.806;2024-02-14T00:51:04;100763.25;;;23.81;36.03
50852;BME280;43953;45.508;-122.806;2024-02-14T00:51:36;100766.22;;;23.85;35.84
50852;BME280;43953;45.508;-122.806;2024-02-14T00:52:11;100760.41;;;23.87;35.98
50852;BME280;43953;45.508;-122.806;2024-02-14T00:52:43;100760.13;;;23.88;35.99
50852;BME280;43953;45.508;-122.806;2024-02-14T00:53:15;100757.06;;;23.90;35.76
50852;BME280;43953;45.508;-122.806;2024-02-14T00:53:47;100756.78;;;23.91;35.89
50852;BME280;43953;45.508;-122.806;2024-02-14T00:54:18;100761.16;;;23.92;35.67
50852;BME280;43953;45.508;-122.806;2024-02-14T00:54:50;100763.09;;;23.92;35.82
50852;BME280;43953;45.508;-122.806;2024-02-14T00:55:22;100757.59;;;23.92;35.85
50852;BME280;43953;45.508;-122.806;2024-02-14T00:55:54;100759.53;;;23.91;35.82
50852;BME280;43953;45.508;-122.806;2024-02-14T00:56:25;100755.44;;;23.89;35.91
50852;BME280;43953;45.508;-122.806;2024-02-14T00:56:57;100759.53;;;23.91;35.95
50852;BME280;43953;45.508;-122.806;2024-02-14T00:57:29;100764.50;;;23.89;35.69
50852;BME280;43953;45.508;-122.806;2024-02-14T00:58:01;100760.94;;;23.89;35.96
50852;BME280;43953;45.508;-122.806;2024-02-14T00:58:33;100765.63;;;23.88;35.86
50852;BME280;43953;45.508;-122.806;2024-02-14T00:59:05;100756.84;;;23.86;35.87
50852;BME280;43953;45.508;-122.806;2024-02-14T00:59:39;100760.72;;;23.85;36.00
50852;BME280;43953;45.508;-122.806;2024-02-14T01:00:10;100754.47;;;23.79;35.83
50852;BME280;43953;45.508;-122.806;2024-02-14T01:00:42;100759.38;;;23.82;35.97
50852;BME280;43953;45.508;-122.806;2024-02-14T01:01:14;100762.41;;;23.81;35.68
50852;BME280;43953;45.508;-122.806;2024-02-14T01:01:46;100754.16;;;23.81;35.80
50852;BME280;43953;45.508;-122.806;2024-02-14T01:02:18;100758.03;;;23.80;36.18
50852;BME280;43953;45.508;-122.806;2024-02-14T01:02:50;100754.75;;;23.78;35.90
50852;BME280;43953;45.508;-122.806;2024-02-14T01:03:22;100758.63;;;23.77;36.10
50852;BME280;43953;45.508;-122.806;2024-02-14T01:03:54;100755.88;;;23.77;35.88
50852;BME280;43953;45.508;-122.806;2024-02-14T01:04:26;100761.69;;;23.75;36.05
50852;BME280;43953;45.508;-122.806;2024-02-14T01:04:57;100752.38;;;23.71;36.17
50852;BME280;43953;45.508;-122.806;2024-02-14T01:05:29;100755.34;;;23.75;35.97
50852;BME280;43953;45.508;-122.806;2024-02-14T01:06:01;100752.91;;;23.73;36.08
50852;BME280;43953;45.508;-122.806;2024-02-14T01:06:33;100754.84;;;23.73;35.87
50852;BME280;43953;45.508;-122.806;2024-02-14T01:07:04;100751.28;;;23.72;36.27
50852;BME280;43953;45.508;-122.806;2024-02-14T01:07:36;100758.69;;;23.72;36.02
50852;BME280;43953;45.508;-122.806;2024-02-14T01:08:08;100749.63;;;23.71;36.02
50852;BME280;43953;45.508;-122.806;2024-02-14T01:08:40;100758.69;;;23.72;36.23
50852;BME280;43953;45.508;-122.806;2024-02-14T01:09:12;100762.56;;;23.71;36.04
50852;BME280;43953;45.508;-122.806;2024-02-14T01:09:44;100757.88;;;23.71;36.22
50852;BME280;43953;45.508;-122.806;2024-02-14T01:10:16;100753.19;;;23.72;36.10
50852;BME280;43953;45.508;-122.806;2024-02-14T01:10:49;100753.19;;;23.72;35.95
50852;BME280;43953;45.508;-122.806;2024-02-14T01:11:22;100756.50;;;23.69;36.02
50852;BME280;43953;45.508;-122.806;2024-02-14T01:11:54;100749.63;;;23.71;36.24
50852;BME280;43953;45.508;-122.806;2024-02-14T01:12:27;100750.44;;;23.72;36.12
50852;BME280;43953;45.508;-122.806;2024-02-14T01:13:00;100758.69;;;23.72;36.24
50852;BME280;43953;45.508;-122.806;2024-02-14T01:13:32;100755.13;;;23.71;36.36
50852;BME280;43953;45.508;-122.806;2024-02-14T01:14:04;100760.63;;;23.71;36.20
50852;BME280;43953;45.508;-122.806;2024-02-14T01:14:36;100755.13;;;23.71;36.33
50852;BME280;43953;45.508;-122.806;2024-02-14T01:15:08;100746.06;;;23.71;36.32
50852;BME280;43953;45.508;-122.806;2024-02-14T01:15:40;100746.06;;;23.71;36.24
50852;BME280;43953;45.508;-122.806;2024-02-14T01:16:12;100751.81;;;23.69;36.18
50852;BME280;43953;45.508;-122.806;2024-02-14T01:16:45;100751.00;;;23.69;36.25
50852;BME280;43953;45.508;-122.806;2024-02-14T01:17:17;100744.44;;;23.70;36.23
50852;BME280;43953;45.508;-122.806;2024-02-14T01:17:49;100747.19;;;23.70;36.17
50852;BME280;43953;45.508;-122.806;2024-02-14T01:18:21;100751.00;;;23.69;36.18
50852;BME280;43953;45.508;-122.806;2024-02-14T01:18:53;100745.50;;;23.69;36.25
50852;BME280;43953;45.508;-122.806;2024-02-14T01:19:24;100745.81;;;23.67;36.19
50852;BME280;43953;45.508;-122.806;2024-02-14T01:19:59;100742.25;;;23.67;36.26
50852;BME280;43953;45.508;-122.806;2024-02-14T01:20:31;100745.00;;;23.67;36.15
50852;BME280;43953;45.508;-122.806;2024-02-14T01:21:03;100743.34;;;23.66;36.39
50852;BME280;43953;45.508;-122.806;2024-02-14T01:21:35;100743.34;;;23.66;36.18
50852;BME280;43953;45.508;-122.806;2024-02-14T01:22:06;100746.09;;;23.66;36.02
50852;BME280;43953;45.508;-122.806;2024-02-14T01:22:39;100743.66;;;23.64;36.25
50852;BME280;43953;45.508;-122.806;2024-02-14T01:23:11;100734.59;;;23.64;36.13
50852;BME280;43953;45.508;-122.806;2024-02-14T01:23:43;100740.91;;;23.64;36.25
50852;BME280;43953;45.508;-122.806;2024-02-14T01:24:15;100741.19;;;23.62;36.28
50852;BME280;43953;45.508;-122.806;2024-02-14T01:24:47;100743.94;;;23.62;36.05
50852;BME280;43953;45.508;-122.806;2024-02-14T01:25:19;100744.25;;;23.61;36.29
50852;BME280;43953;45.508;-122.806;2024-02-14T01:25:50;100740.69;;;23.60;36.34
50852;BME280;43953;45.508;-122.806;2024-02-14T01:26:22;100741.78;;;23.59;36.16
50852;BME280;43953;45.508;-122.806;2024-02-14T01:26:54;100743.44;;;23.60;36.14
50852;BME280;43953;45.508;-122.806;2024-02-14T01:27:26;100737.09;;;23.60;36.08
50852;BME280;43953;45.508;-122.806;2024-02-14T01:28:00;100738.22;;;23.59;36.21
50852;BME280;43953;45.508;-122.806;2024-02-14T01:28:32;100740.16;;;23.58;36.02
50852;BME280;43953;45.508;-122.806;2024-02-14T01:29:04;100740.16;;;23.58;35.88
50852;BME280;43953;45.508;-122.806;2024-02-14T01:29:36;100735.78;;;23.57;36.35
50852;BME280;43953;45.508;-122.806;2024-02-14T01:30:09;100743.19;;;23.57;36.23
50852;BME280;43953;45.508;-122.806;2024-02-14T01:30:41;100737.69;;;23.57;36.09
50852;BME280;43953;45.508;-122.806;2024-02-14T01:31:13;100733.59;;;23.54;36.23
50852;BME280;43953;45.508;-122.806;2024-02-14T01:31:45;100740.75;;;23.55;36.38
50852;BME280;43953;45.508;-122.806;2024-02-14T01:32:16;100741.56;;;23.56;36.19
50852;BME280;43953;45.508;-122.806;2024-02-14T01:32:48;100736.06;;;23.56;36.18
50852;BME280;43953;45.508;-122.806;2024-02-14T01:33:20;100738.81;;;23.56;36.19
50852;BME280;43953;45.508;-122.806;2024-02-14T01:33:51;100736.06;;;23.56;36.26
50852;BME280;43953;45.508;-122.806;2024-02-14T01:34:23;100732.50;;;23.55;36.31
50852;BME280;43953;45.508;-122.806;2024-02-14T01:34:55;100731.41;;;23.56;36.32
50852;BME280;43953;45.508;-122.806;2024-02-14T01:35:27;100730.56;;;23.56;36.34
50852;BME280;43953;45.508;-122.806;2024-02-14T01:35:58;100740.75;;;23.55;36.39
50852;BME280;43953;45.508;-122.806;2024-02-14T01:36:30;100733.31;;;23.56;36.19
50852;BME280;43953;45.508;-122.806;2024-02-14T01:37:02;100738.00;;;23.55;36.23
50852;BME280;43953;45.508;-122.806;2024-02-14T01:37:34;100730.03;;;23.54;36.17
50852;BME280;43953;45.508;-122.806;2024-02-14T01:38:06;100733.59;;;23.54;36.37
50852;BME280;43953;45.508;-122.806;2024-02-14T01:38:38;100727.06;;;23.50;36.20
50852;BME280;43953;45.508;-122.806;2024-02-14T01:39:10;100728.41;;;23.53;36.25
50852;BME280;43953;45.508;-122.806;2024-02-14T01:39:42;100734.72;;;23.53;36.40
50852;BME280;43953;45.508;-122.806;2024-02-14T01:40:14;100727.31;;;23.54;36.33
50852;BME280;43953;45.508;-122.806;2024-02-14T01:40:47;100730.03;;;23.54;36.44
50852;BME280;43953;45.508;-122.806;2024-02-14T01:41:19;100726.50;;;23.53;36.22
50852;BME280;43953;45.508;-122.806;2024-02-14T01:41:52;100721.00;;;23.53;36.45
50852;BME280;43953;45.508;-122.806;2024-02-14T01:42:24;100731.97;;;23.53;36.15
50852;BME280;43953;45.508;-122.806;2024-02-14T01:42:56;100729.25;;;23.53;36.13
50852;BME280;43953;45.508;-122.806;2024-02-14T01:43:27;100730.88;;;23.54;36.39
50852;BME280;43953;45.508;-122.806;2024-02-14T01:43:59;100704.72;;;23.38;36.41
50852;BME280;43953;45.508;-122.806;2024-02-14T01:44:31;100726.50;;;23.53;36.29
50852;BME280;43953;45.508;-122.806;2024-02-14T01:45:03;100731.97;;;23.53;36.38
50852;BME280;43953;45.508;-122.806;2024-02-14T01:45:35;100730.03;;;23.54;36.46
50852;BME280;43953;45.508;-122.806;2024-02-14T01:46:07;100731.97;;;23.53;36.22
50852;BME280;43953;45.508;-122.806;2024-02-14T01:46:39;100734.72;;;23.53;36.33
50852;BME280;43953;45.508;-122.806;2024-02-14T01:47:11;100733.91;;;23.53;36.25
50852;BME280;43953;45.508;-122.806;2024-02-14T01:47:43;100731.97;;;23.53;36.29
50852;BME280;43953;45.508;-122.806;2024-02-14T01:48:15;100733.91;;;23.53;36.19
50852;BME280;43953;45.508;-122.806;2024-02-14T01:48:49;100735.84;;;23.52;36.20
50852;BME280;43953;45.508;-122.806;2024-02-14T01:49:21;100736.66;;;23.53;36.41
50852;BME280;43953;45.508;-122.806;2024-02-14T01:49:53;100741.34;;;23.52;36.22
50852;BME280;43953;45.508;-122.806;2024-02-14T01:50:25;100736.94;;;23.51;36.20
50852;BME280;43953;45.508;-122.806;2024-02-14T01:51:02;100731.44;;;23.51;36.34
50852;BME280;43953;45.508;-122.806;2024-02-14T01:51:36;100734.19;;;23.51;36.35
50852;BME280;43953;45.508;-122.806;2024-02-14T01:52:07;100736.44;;;23.49;36.41
50852;BME280;43953;45.508;-122.806;2024-02-14T01:52:41;100741.94;;;23.49;36.21
50852;BME280;43953;45.508;-122.806;2024-02-14T01:53:13;100741.41;;;23.47;36.29
50852;BME280;43953;45.508;-122.806;2024-02-14T01:53:45;100738.66;;;23.47;36.44
50852;BME280;43953;45.508;-122.806;2024-02-14T01:54:16;100735.91;;;23.47;36.21
50852;BME280;43953;45.508;-122.806;2024-02-14T01:54:49;100746.91;;;23.47;36.44
50852;BME280;43953;45.508;-122.806;2024-02-14T01:55:21;100744.16;;;23.47;36.37
50852;BME280;43953;45.508;-122.806;2024-02-14T01:55:53;100742.75;;;23.50;36.34
50852;BME280;43953;45.508;-122.806;2024-02-14T01:56:25;100740.00;;;23.50;36.43
50852;BME280;43953;45.508;-122.806;2024-02-14T01:56:58;100737.78;;;23.52;36.46
50852;BME280;43953;45.508;-122.806;2024-02-14T01:57:31;100741.03;;;23.54;36.54
50852;BME280;43953;45.508;-122.806;2024-02-14T01:58:04;100744.31;;;23.56;36.39
50852;BME280;43953;45.508;-122.806;2024-02-14T01:58:36;100742.91;;;23.58;36.50
50852;BME280;43953;45.508;-122.806;2024-02-14T01:59:09;100741.50;;;23.61;36.51
50852;BME280;43953;45.508;-122.806;2024-02-14T01:59:41;100735.69;;;23.62;36.57
50852;BME280;43953;45.508;-122.806;2024-02-14T02:00:13;100742.53;;;23.65;36.39
50852;BME280;43953;45.508;-122.806;2024-02-14T02:00:47;100741.41;;;23.66;36.38
50852;BME280;43953;45.508;-122.806;2024-02-14T02:01:21;100741.13;;;23.68;36.45
50852;BME280;43953;45.508;-122.806;2024-02-14T02:01:54;100739.19;;;23.68;36.33
50852;BME280;43953;45.508;-122.806;2024-02-14T02:02:27;100741.69;;;23.70;36.29
50852;BME280;43953;45.508;-122.806;2024-02-14T02:02:59;100733.44;;;23.70;36.30
50852;BME280;43953;45.508;-122.806;2024-02-14T02:03:31;100738.94;;;23.70;36.26
50852;BME280;43953;45.508;-122.806;2024-02-14T02:04:06;100736.19;;;23.70;36.33
50852;BME280;43953;45.508;-122.806;2024-02-14T02:04:38;100744.44;;;23.70;36.13
50852;BME280;43953;45.508;-122.806;2024-02-14T02:05:10;100734.53;;;23.69;36.40
50852;BME280;43953;45.508;-122.806;2024-02-14T02:05:42;100733.69;;;23.68;36.54
50852;BME280;43953;45.508;-122.806;2024-02-14T02:06:13;100743.06;;;23.67;36.18
50852;BME280;43953;45.508;-122.806;2024-02-14T02:06:46;100738.38;;;23.68;36.32
50852;BME280;43953;45.508;-122.806;2024-02-14T02:07:18;100741.13;;;23.68;36.46
50852;BME280;43953;45.508;-122.806;2024-02-14T02:07:50;100737.84;;;23.66;36.24
50852;BME280;43953;45.508;-122.806;2024-02-14T02:08:22;100732.34;;;23.66;36.35
50852;BME280;43953;45.508;-122.806;2024-02-14T02:08:54;100740.59;;;23.66;36.43
50852;BME280;43953;45.508;-122.806;2024-02-14T02:09:26;100744.47;;;23.65;36.23
50852;BME280;43953;45.508;-122.806;2024-02-14T02:09:57;100734.59;;;23.64;36.17
50852;BME280;43953;45.508;-122.806;2024-02-14T02:10:29;100740.09;;;23.64;36.42
50852;BME280;43953;45.508;-122.806;2024-02-14T02:11:01;100743.94;;;23.62;36.35
50852;BME280;43953;45.508;-122.806;2024-02-14T02:11:53;100737.94;;;23.60;36.28
50852;BME280;43953;45.508;-122.806;2024-02-14T02:12:27;100749.75;;;23.61;36.44
50852;BME280;43953;45.508;-122.806;2024-02-14T02:12:59;100737.94;;;23.60;36.42
50852;BME280;43953;45.508;-122.806;2024-02-14T02:13:32;100731.94;;;23.58;36.39
50852;BME280;43953;45.508;-122.806;2024-02-14T02:14:03;100738.44;;;23.62;36.35
50852;BME280;43953;45.508;-122.806;2024-02-14T02:14:35;100740.09;;;23.64;36.78
50852;BME280;43953;45.508;-122.806;2024-02-14T02:15:08;100738.97;;;23.65;36.55
50852;BME280;43953;45.508;-122.806;2024-02-14T02:15:44;100738.38;;;23.68;36.59
50852;BME280;43953;45.508;-122.806;2024-02-14T02:16:16;100738.94;;;23.70;36.66
50852;BME280;43953;45.508;-122.806;2024-02-14T02:16:50;100740.28;;;23.72;36.63
50852;BME280;43953;45.508;-122.806;2024-02-14T02:17:21;100738.03;;;23.74;36.59
50852;BME280;43953;45.508;-122.806;2024-02-14T02:17:54;100740.19;;;23.77;36.61
50852;BME280;43953;45.508;-122.806;2024-02-14T02:18:26;100744.28;;;23.80;36.45
50852;BME280;43953;45.508;-122.806;2024-02-14T02:18:57;100737.66;;;23.81;36.35
50852;BME280;43953;45.508;-122.806;2024-02-14T02:19:29;100737.09;;;23.84;36.47
50852;BME280;43953;45.508;-122.806;2024-02-14T02:20:01;100740.34;;;23.86;36.56
50852;BME280;43953;45.508;-122.806;2024-02-14T02:20:33;100736.50;;;23.87;36.67
50852;BME280;43953;45.508;-122.806;2024-02-14T02:21:05;100738.94;;;23.89;36.50
50852;BME280;43953;45.508;-122.806;2024-02-14T02:21:38;100739.75;;;23.89;36.53
50852;BME280;43953;45.508;-122.806;2024-02-14T02:22:10;100737.81;;;23.90;36.23
50852;BME280;43953;45.508;-122.806;2024-02-14T02:22:47;100738.34;;;23.92;36.33
50852;BME280;43953;45.508;-122.806;2024-02-14T02:23:19;100737.53;;;23.91;36.47
50852;BME280;43953;45.508;-122.806;2024-02-14T02:23:53;100745.78;;;23.91;36.20
50852;BME280;43953;45.508;-122.806;2024-02-14T02:24:24;100739.75;;;23.89;36.18
50852;BME280;43953;45.508;-122.806;2024-02-14T02:24:56;100734.25;;;23.89;36.35
50852;BME280;43953;45.508;-122.806;2024-02-14T02:25:28;100738.13;;;23.88;36.39
50852;BME280;43953;45.508;-122.806;2024-02-14T02:26:00;100733.75;;;23.87;36.25
50852;BME280;43953;45.508;-122.806;2024-02-14T02:26:32;100736.50;;;23.87;36.54
50852;BME280;43953;45.508;-122.806;2024-02-14T02:27:04;100727.72;;;23.85;36.58
50852;BME280;43953;45.508;-122.806;2024-02-14T02:27:35;100714.97;;;23.75;36.69
50852;BME280;43953;45.508;-122.806;2024-02-14T02:28:09;100733.22;;;23.85;36.37
50852;BME280;43953;45.508;-122.806;2024-02-14T02:28:41;100734.34;;;23.84;36.52
50852;BME280;43953;45.508;-122.806;2024-02-14T02:29:13;100732.69;;;23.83;36.50
50852;BME280;43953;45.508;-122.806;2024-02-14T02:29:46;100730.25;;;23.81;36.42
50852;BME280;43953;45.508;-122.806;2024-02-14T02:30:18;100738.50;;;23.81;36.67
50852;BME280;43953;45.508;-122.806;2024-02-14T02:30:50;100730.53;;;23.80;36.37
50852;BME280;43953;45.508;-122.806;2024-02-14T02:31:24;100733.28;;;23.80;36.35
50852;BME280;43953;45.508;-122.806;2024-02-14T02:31:57;100734.41;;;23.79;36.31
50852;BME280;43953;45.508;-122.806;2024-02-14T02:32:29;100733.59;;;23.78;36.19
50852;BME280;43953;45.508;-122.806;2024-02-14T02:33:01;100737.44;;;23.77;36.13
50852;BME280;43953;45.508;-122.806;2024-02-14T02:33:33;100736.63;;;23.77;36.35
50852;BME280;43953;45.508;-122.806;2024-02-14T02:34:05;100736.63;;;23.77;36.37
50852;BME280;43953;45.508;-122.806;2024-02-14T02:34:37;100731.13;;;23.77;36.27
50852;BME280;43953;45.508;-122.806;2024-02-14T02:35:12;100735.28;;;23.74;36.26
50852;BME280;43953;45.508;-122.806;2024-02-14T02:35:43;100735.59;;;23.73;36.27
50852;BME280;43953;45.508;-122.806;2024-02-14T02:36:16;100735.59;;;23.73;36.31
50852;BME280;43953;45.508;-122.806;2024-02-14T02:36:48;100733.94;;;23.72;36.12
50852;BME280;43953;45.508;-122.806;2024-02-14T02:37:21;100737.81;;;23.71;36.35
50852;BME280;43953;45.508;-122.806;2024-02-14T02:37:53;100735.91;;;23.71;36.16
50852;BME280;43953;45.508;-122.806;2024-02-14T02:38:25;100737.81;;;23.71;36.39
50852;BME280;43953;45.508;-122.806;2024-02-14T02:38:57;100724.34;;;23.69;36.25
50852;BME280;43953;45.508;-122.806;2024-02-14T02:39:29;100729.03;;;23.69;36.23
50852;BME280;43953;45.508;-122.806;2024-02-14T02:40:01;100726.28;;;23.69;36.22
50852;BME280;43953;45.508;-122.806;2024-02-14T02:40:32;100731.78;;;23.69;36.31
50852;BME280;43953;45.508;-122.806;2024-02-14T02:41:04;100733.69;;;23.68;36.19
50852;BME280;43953;45.508;-122.806;2024-02-14T02:41:39;100732.91;;;23.68;36.22
50852;BME280;43953;45.508;-122.806;2024-02-14T02:42:11;100728.22;;;23.68;36.25